Terminal Aerodrome Forecast
Issued by NWS

Home | Current Version | Previous Version | Text Only | Print | Product List | Glossary On
Versions: 1 2 3 4 5 6 7 8 9 10 11 12 13 14 15 16 17 18 19 20 21
000
FTUS41 KOKX 211500 AAB
TAFSWF
TAF AMD
KSWF 211526Z 2115/2218 21006KT P6SM VCSH OVC050
     FM211800 VRB05KT P6SM VCSH BKN040 BKN100
      TEMPO 2122/2201 5SM SHRA
     FM220100 VRB03KT P6SM VCSH SCT020 BKN040 PROB30 2201/2206 4SM
      SHRA BR BKN020
     FM220600 10004KT P6SM SCT015 BKN030 PROB30 2206/2210 4SM -SHRA
      BR BKN015
     FM221000 10004KT P6SM VCSH BKN015 OVC030
      AMD NOT SKED=

USA.gov is the U.S. government's official web portal to all federal, state and local government web resources and services.